Friday, March 27, 2015, 4:09 AM EDT

KRIC, Richmond International Airport

Location: Sandston, VA, United States Lat: 37.517
Local Time: 4:09 AM EDT ( 8:09 GMT) Lon: -77.317
Time Zone: US/Eastern Elev: 167 ft

Show me the last for .
Show Decoded

2015-03-27 02:54 METAR KRIC 270654Z 36012KT 10SM -RA OVC025 12/06 A2973 RMK AO2 RAB45 SLP071
                 P0000 T01170056 =
2015-03-27 01:54 METAR KRIC 270554Z 02017G24KT 10SM BKN015 OVC030 13/08 A2972 RMK AO2 PK WND
                 02029/0544 WSHFT 0517 SLP067 T01330078 10217 20133 53016 =
2015-03-27 01:31 METAR KRIC 270531Z 01019G24KT 10SM FEW014 BKN022 OVC070 15/11 A2970 RMK AO2
                 WSHFT 0517 =
2015-03-27 00:54 METAR KRIC 270454Z 19005KT 10SM BKN055 OVC090 18/13 A2968 RMK AO2 SLP055
                 T01830128 402500089 =
2015-03-26 23:54 METAR KRIC 270354Z 19008KT 10SM FEW075 SCT095 OVC220 19/12 A2967 =
2015-03-26 22:54 METAR KRIC 270254Z 20009KT 10SM FEW110 OVC230 19/12 A2967 RMK AO2 SLP050
                 T01940122 50007 =
2015-03-26 21:54 METAR KRIC 270154Z 21009KT 10SM FEW090 OVC300 20/13 A2968 RMK AO2 SLP053
                 T02000128 =
2015-03-26 20:54 METAR KRIC 270054Z 20009KT 10SM FEW090 OVC270 21/12 A2966 RMK AO2 SLP046
                 T02060122 =
2015-03-26 19:54 METAR KRIC 262354Z 21010KT 10SM FEW090 OVC250 22/12 A2965 RMK AO2 SLP045
                 T02170122 10250 20217 57005 =
2015-03-26 18:54 METAR KRIC 262254Z 21010KT 10SM FEW045 SCT090 OVC270 23/12 A2966 RMK AO2 SLP048
                 T02280122 =
2015-03-26 17:54 METAR KRIC 262154Z 20016KT 10SM FEW035 SCT060 OVC270 24/12 A2965 RMK AO2 SLP046
                 T02390122 =
2015-03-26 16:54 METAR KRIC 262054Z 19014G19KT 10SM FEW028 SCT045 OVC300 25/15 A2967 RMK AO2
                 SLP049 T02500150 56035 =
2015-03-26 15:54 METAR KRIC 261954Z 18013KT 10SM SCT030 OVC250 23/16 A2971 RMK AO2 SLP064
                 T02330156 =
2015-03-26 14:54 METAR KRIC 261854Z 18016KT 10SM SCT030 BKN250 24/16 A2971 RMK AO2 SLP066
                 T02390156 =
2015-03-26 13:54 METAR KRIC 261754Z 18013G19KT 10SM FEW031 SCT095 BKN250 22/17 A2977 RMK AO2
                 SLP085 60011 T02220167 10222 20117 58046 =
2015-03-26 12:54 METAR KRIC 261654Z 19014KT 10SM SCT019 BKN030 OVC070 22/16 A2983 =
2015-03-26 11:54 METAR KRIC 261554Z 18014G21KT 10SM BKN016 OVC036 21/17 A2987 RMK AO2 PK WND
                 15035/1501 SLP120 T02060167 =
2015-03-26 11:20 METAR KRIC 261520Z 18013KT 10SM OVC016 20/17 A2989 RMK AO2 PK WND 15035/1501 =
2015-03-26 10:54 METAR KRIC 261454Z 18013G19KT 10SM OVC014 20/17 A2991 RMK AO2 PK WND 18026/1359
                 SLP131 60011 T02000167 56029 =
2015-03-26 10:46 METAR KRIC 261446Z 19014G19KT 10SM BKN014 OVC020 20/17 A2991 RMK AO2 PK WND
                 18026/1359 =
2015-03-26 09:54 METAR KRIC 261354Z 18018G23KT 10SM OVC009 19/16 A2992 RMK AO2 CIG 007V013 SLP137
                 T01890161 =
2015-03-26 08:54 METAR KRIC 261254Z 18006KT 10SM BKN009 BKN015 OVC050 17/15 A2995 RMK AO2 RAE50
                 SLP147 P0011 T01670150 =
2015-03-26 08:46 METAR KRIC 261246Z 18006KT 7SM -RA BKN013 BKN042 OVC090 16/14 A2995 RMK AO2
                 P0011 =
2015-03-26 08:29 METAR KRIC 261229Z 18007KT 4SM -RA BR BKN007 BKN050 OVC090 14/13 A2995 RMK AO2
                 P0010 =
2015-03-26 08:08 METAR KRIC 261208Z 16004KT 2 1/2SM RA BR BKN005 BKN012 OVC042 13/12 A2996 RMK
                 AO2 P0006 =
2015-03-26 07:56 METAR KRIC 261156Z 26006KT 4SM RA BR BKN005 OVC012 12/10 A3000 RMK AO2 PRESRR
                 P0001 =
2015-03-26 07:54 METAR KRIC 261154Z VRB03KT 5SM RA BR BKN004 OVC012 12/09 A2999 RMK AO2 RAB33
                 PRESRR SLP161 P0004 60004 70004 T01170094 10122 20094 55012 =
2015-03-26 07:26 METAR KRIC 261126Z 00000KT 10SM OVC004 12/08 A2998 RMK AO2 =
2015-03-26 06:54 METAR KRIC 261054Z 00000KT 10SM OVC005 12/08 A2999 =
2015-03-26 05:54 METAR KRIC 260954Z 00000KT 10SM OVC005 12/07 A3001 RMK AO2 RAE03B33E54 SLP167
                 P0000 T01170072 =
2015-03-26 04:54 METAR KRIC 260854Z 00000KT 10SM -RA OVC005 11/07 A3003 RMK AO2 RAE0756B35 SLP173
                 P0000 60000 T01110072 58027 =

Support USWX by starting your Amazon purchase here.